Jerozolima, Izrael

16:09 IST dnia 28-styczeń-2015 (GMT +0200)
IISRAELG2 | Change Station
CLOSE
Current Station
Stacja PWS
Location: Givat Zeev, ISRAEL
n.p.m.: 2543 ft
Najbliższa stacja pogodowa

Wysokość 2543 ft 31.86 °N, 35.16 °E | Updated 6 minutes ago

Haze
zamglenie
52.2 ° F
Odczuwalna 52.2 ° F
Płn.
4.0
Wiatr zmienny Wiatr od zachodni
Gusts 11.0 mph

Dziś
Wysoka -- | Niska -- ° F
--% Prawdop. opadów
Wczoraj
Wysoka -- | Niska -- ° F
Precip. -- cali
6:35 AM 5:09 PM
Powiększający się Księżyc, 65% visible
Ciśnienie 29.92 cali
Widzialność 3.1 mil
chmury przewaga chmur 3000 ft
Punkt rosy 47 ° F
Wilgotność 83%
Opady deszczu 0.00 cali
grubość pokrywy śnieżnej Niedostępne.
UV 0 z 12
Pyłki Niedostępne.
Jakość powietrza Niedostępne.
Flu Activity Niedostępne.
METAR OJAM 281400Z 29013KT 5000 HZ BKN030 13/05 Q1013 NOSIG

More Conditions Fewer Conditions

Ciśnienie 29.92 cali
Widzialność 3.1 mil
chmury przewaga chmur 3000 ft
Punkt rosy 47 ° F
Wilgotność 83%
Opady deszczu 0.00 cali
grubość pokrywy śnieżnej Niedostępne.
UV 0 z 12
Pyłki Niedostępne.
Jakość powietrza Niedostępne.
Flu Activity Niedostępne.
METAR OJAM 281400Z 29013KT 5000 HZ BKN030 13/05 Q1013 NOSIG

More Conditions Fewer Conditions

10-Day Weather Forecast

Almanac

Astronomia

Jan. 28, 2015 Wschód Zachów
Aktualny czas
Zmierzch cywilny
Zmierzch żeglarski
świt/zmierzch astronomiczny
Księżyc
całkowite oświetlenie
Długość dnia
Tomorrow will be .
, % of the Moon is Illuminated

Dzisiejsze ekstrema

Country Highs Country Lows

Community

WunderPhotos

Upload Photos

1,791,148 zdjęcia zostały przesłane!

WunderBlogs® & News

Nearby

Jakość powietrza

  Jakość powietrza czynnik AQ Zanieczyszczenie
Not available.

Głębokość pokrywy śnieżnej

Station Depth n.p.m.

Aktywność sejsmiczna

Miejscowość Distance Mag. Time & Date
Minimum magnitude displayed is 2.5.

Temperatury wody na wybrzeżu

Miejsce Temperatura

Najbliższa stacja pogodowa